createdAt,value
2022-11-03T00:01:13.212Z,24.17
2022-11-03T00:03:39.607Z,22.20
2022-11-03T00:06:06.188Z,27.50
2022-11-03T00:08:37.324Z,18.85
2022-11-03T00:11:11.480Z,19.30
2022-11-03T00:13:38.576Z,10.73
2022-11-03T00:16:05.200Z,12.90
2022-11-03T00:18:31.579Z,12.20
2022-11-03T00:20:58.872Z,18.30
2022-11-03T00:23:29.389Z,11.15
2022-11-03T00:25:56.120Z,20.45
2022-11-03T00:28:22.419Z,11.18
2022-11-03T00:30:48.736Z,14.27
2022-11-03T00:33:14.998Z,14.07
2022-11-03T00:35:41.318Z,17.25
2022-11-03T00:38:07.834Z,13.80
2022-11-03T00:40:34.183Z,14.05
2022-11-03T00:43:00.443Z,19.70
2022-11-03T00:45:26.718Z,11.13
2022-11-03T00:48:22.022Z,15.48
2022-11-03T00:50:48.334Z,18.55
2022-11-03T00:53:14.633Z,18.23
2022-11-03T00:55:40.889Z,20.63
2022-11-03T00:58:07.171Z,15.27
2022-11-03T01:00:33.444Z,15.93
2022-11-03T01:02:59.710Z,15.10
2022-11-03T01:05:44.836Z,17.83
2022-11-03T01:08:11.176Z,22.65
2022-11-03T01:10:38.199Z,15.27
2022-11-03T01:13:04.777Z,17.50
2022-11-03T01:15:31.310Z,23.58
2022-11-03T01:17:57.990Z,14.80
2022-11-03T01:20:24.259Z,12.23
2022-11-03T01:22:50.531Z,13.70
2022-11-03T01:25:16.833Z,16.75
2022-11-03T01:27:43.113Z,18.52
2022-11-03T01:30:09.651Z,14.10
2022-11-03T01:32:35.905Z,11.95
2022-11-03T01:35:02.200Z,21.42
2022-11-03T01:37:28.470Z,18.80
2022-11-03T01:39:54.853Z,16.13
2022-11-03T01:42:21.162Z,22.60
2022-11-03T01:44:48.223Z,19.15
2022-11-03T01:47:18.574Z,24.38
2022-11-03T01:49:48.821Z,17.02
2022-11-03T01:52:21.476Z,16.90
2022-11-03T01:54:49.511Z,21.10
2022-11-03T01:57:18.970Z,18.95
2022-11-03T01:59:46.246Z,25.17
2022-11-03T02:02:17.276Z,18.20
2022-11-03T02:04:44.030Z,21.20
2022-11-03T02:07:17.419Z,19.88
2022-11-03T02:09:43.698Z,18.10
2022-11-03T02:12:10.404Z,15.85
2022-11-03T02:14:45.123Z,14.25
2022-11-03T02:17:12.867Z,18.33
2022-11-03T02:19:41.249Z,13.27
2022-11-03T02:22:25.222Z,12.68
2022-11-03T02:24:54.283Z,13.02
2022-11-03T02:27:21.131Z,17.55
2022-11-03T02:29:47.815Z,16.75
2022-11-03T02:32:14.062Z,22.35
2022-11-03T02:35:03.759Z,19.23
2022-11-03T02:37:32.146Z,18.33
2022-11-03T02:40:10.377Z,17.20
2022-11-03T02:42:37.884Z,15.38
2022-11-03T02:45:06.450Z,16.02
2022-11-03T02:47:33.224Z,25.90
2022-11-03T02:49:59.533Z,18.67
2022-11-03T02:52:36.827Z,21.00
2022-11-03T02:55:09.334Z,19.02
2022-11-03T02:57:38.000Z,16.05
2022-11-03T03:00:06.320Z,17.90
2022-11-03T03:02:46.892Z,17.20
2022-11-03T03:05:14.624Z,13.82
2022-11-03T03:07:44.390Z,18.25
2022-11-03T03:10:14.174Z,12.90
2022-11-03T03:12:43.174Z,14.10
2022-11-03T03:15:09.908Z,15.80
2022-11-03T03:17:36.147Z,14.30
2022-11-03T03:20:05.491Z,22.50
2022-11-03T03:22:53.644Z,20.08
2022-11-03T03:25:24.820Z,22.95
2022-11-03T03:27:53.282Z,15.68
2022-11-03T03:30:19.617Z,17.63
2022-11-03T03:32:49.853Z,15.13
2022-11-03T03:35:20.297Z,15.45
2022-11-03T03:37:48.388Z,16.58
2022-11-03T03:40:16.603Z,19.98
2022-11-03T03:42:44.040Z,18.15
2022-11-03T03:45:11.369Z,19.92
2022-11-03T03:47:38.068Z,16.83
2022-11-03T03:50:04.567Z,20.98
2022-11-03T03:52:33.423Z,23.08
2022-11-03T03:54:59.699Z,20.02
2022-11-03T03:57:27.454Z,19.63
2022-11-03T03:59:53.757Z,17.13
2022-11-03T04:02:20.166Z,24.08
2022-11-03T04:04:46.470Z,18.10
2022-11-03T04:07:31.654Z,15.68
2022-11-03T04:09:57.907Z,17.92
2022-11-03T04:12:42.958Z,20.65
2022-11-03T04:15:30.611Z,15.25
2022-11-03T04:18:15.593Z,19.45
2022-11-03T04:21:00.726Z,21.00
2022-11-03T04:23:27.024Z,20.85
2022-11-03T04:25:54.759Z,23.50
2022-11-03T04:28:21.147Z,14.85
2022-11-03T04:30:47.468Z,14.27
2022-11-03T04:33:15.198Z,15.77
2022-11-03T04:35:44.170Z,19.05
2022-11-03T04:38:13.568Z,14.07
2022-11-03T04:40:41.444Z,15.32
2022-11-03T04:43:12.030Z,15.60
2022-11-03T04:45:38.420Z,16.90
2022-11-03T04:48:15.312Z,16.83
2022-11-03T04:50:46.591Z,15.13
2022-11-03T04:53:14.499Z,16.10
2022-11-03T04:55:41.506Z,18.73
2022-11-03T04:58:17.470Z,21.02
2022-11-03T05:00:43.751Z,17.33
2022-11-03T05:03:14.919Z,14.85
2022-11-03T05:05:41.216Z,13.30
2022-11-03T05:08:08.510Z,14.65
2022-11-03T05:10:34.879Z,22.13
2022-11-03T05:13:01.567Z,19.45
2022-11-03T05:15:38.016Z,17.40
2022-11-03T05:18:12.857Z,23.15
2022-11-03T05:20:42.907Z,20.10
2022-11-03T05:23:10.928Z,19.33
2022-11-03T05:25:40.914Z,19.38
2022-11-03T05:28:20.953Z,27.17
2022-11-03T05:30:48.491Z,25.67
2022-11-03T05:33:27.499Z,21.20
2022-11-03T05:35:54.582Z,20.60
2022-11-03T05:38:22.378Z,26.55
2022-11-03T05:40:52.726Z,20.50
2022-11-03T05:43:19.735Z,22.88
2022-11-03T05:45:46.284Z,19.60
2022-11-03T05:48:15.701Z,23.23
2022-11-03T05:50:42.364Z,19.80
2022-11-03T05:53:18.206Z,20.65
2022-11-03T05:55:44.499Z,21.15
2022-11-03T05:58:29.108Z,20.48
2022-11-03T06:00:57.516Z,24.92
2022-11-03T06:03:25.078Z,23.02
2022-11-03T06:05:52.116Z,24.25
2022-11-03T06:10:56.733Z,29.85
2022-11-03T06:13:37.409Z,22.08
2022-11-03T06:16:05.537Z,26.70
2022-11-03T06:18:36.271Z,29.67
2022-11-03T06:21:08.035Z,19.77
2022-11-03T06:23:35.546Z,21.33
2022-11-03T06:26:02.964Z,23.80
2022-11-03T06:28:36.663Z,26.60
2022-11-03T06:31:04.798Z,22.85
2022-11-03T06:33:34.651Z,21.58
2022-11-03T06:36:11.681Z,19.10
2022-11-03T06:38:37.989Z,22.67
2022-11-03T06:41:04.360Z,22.33
2022-11-03T06:43:40.910Z,24.50
2022-11-03T06:46:21.690Z,23.98
2022-11-03T06:48:48.205Z,24.23
2022-11-03T06:51:16.215Z,24.85
2022-11-03T06:53:42.713Z,24.98
2022-11-03T06:56:29.331Z,27.25
2022-11-03T06:58:56.581Z,20.60
2022-11-03T07:01:24.714Z,24.90
2022-11-03T07:03:52.518Z,22.75
2022-11-03T07:06:18.887Z,22.83
2022-11-03T07:08:46.689Z,25.23
2022-11-03T07:11:16.057Z,17.55
2022-11-03T07:13:42.690Z,17.00
2022-11-03T07:16:16.165Z,26.30
2022-11-03T07:18:45.163Z,18.80
2022-11-03T07:21:27.506Z,21.83
2022-11-03T07:23:53.865Z,19.83
2022-11-03T07:26:20.109Z,21.95
2022-11-03T07:28:48.336Z,16.15
2022-11-03T07:31:23.166Z,18.02
2022-11-03T07:33:49.531Z,14.20
2022-11-03T07:36:18.833Z,19.30
2022-11-03T07:38:46.550Z,17.20
2022-11-03T07:41:18.239Z,17.40
2022-11-03T07:43:50.278Z,14.90
2022-11-03T07:46:19.462Z,17.20
2022-11-03T07:48:46.540Z,18.13
2022-11-03T07:51:23.731Z,11.82
2022-11-03T07:53:50.834Z,14.52
2022-11-03T07:56:21.852Z,15.80
2022-11-03T07:58:50.773Z,12.02
2022-11-03T08:01:22.857Z,12.32
2022-11-03T08:03:49.474Z,11.88
2022-11-03T08:06:18.830Z,17.70
2022-11-03T08:08:46.714Z,17.02
2022-11-03T08:13:40.313Z,14.77
2022-11-03T08:16:06.831Z,17.10
2022-11-03T08:18:33.168Z,21.17
2022-11-03T08:20:59.496Z,12.65
2022-11-03T08:23:26.601Z,18.65
2022-11-03T08:25:53.338Z,14.70
2022-11-03T08:28:19.700Z,16.25
2022-11-03T08:30:46.003Z,14.32
2022-11-03T08:33:12.289Z,16.17
2022-11-03T08:35:38.619Z,12.75
2022-11-03T08:38:05.313Z,16.25
2022-11-03T08:40:31.859Z,15.70
2022-11-03T08:42:58.252Z,11.55
2022-11-03T08:45:24.585Z,14.52
2022-11-03T08:47:50.921Z,14.93
2022-11-03T08:50:17.263Z,15.73
2022-11-03T08:52:43.552Z,15.70
2022-11-03T08:55:10.019Z,9.95
2022-11-03T08:57:36.284Z,13.05
2022-11-03T09:00:03.583Z,12.82
2022-11-03T09:02:29.889Z,15.68
2022-11-03T09:04:56.214Z,17.52
2022-11-03T09:07:22.683Z,12.68
2022-11-03T09:12:36.454Z,16.35
2022-11-03T09:15:03.302Z,13.40
2022-11-03T09:17:29.573Z,12.57
2022-11-03T09:19:55.876Z,13.68
2022-11-03T09:22:22.551Z,12.88
2022-11-03T09:24:48.948Z,14.63
2022-11-03T09:27:15.295Z,15.43
2022-11-03T09:30:10.976Z,14.57
2022-11-03T09:32:27.903Z,11.13
2022-11-03T09:34:54.160Z,13.35
2022-11-03T09:37:20.494Z,15.15
2022-11-03T09:39:46.775Z,10.32
2022-11-03T09:42:13.054Z,11.63
2022-11-03T09:44:39.461Z,11.65
2022-11-03T09:47:06.419Z,14.88
2022-11-03T09:49:33.594Z,17.83
2022-11-03T09:52:04.219Z,14.00
2022-11-03T09:54:31.037Z,15.32
2022-11-03T09:56:59.944Z,17.23
2022-11-03T09:59:26.257Z,11.98
2022-11-03T10:01:53.479Z,13.68
2022-11-03T10:04:22.720Z,11.02
2022-11-03T10:06:49.071Z,12.13
2022-11-03T10:09:17.529Z,15.65
2022-11-03T10:11:45.128Z,12.88
2022-11-03T10:14:13.243Z,13.80
2022-11-03T10:16:40.587Z,10.93
2022-11-03T10:19:09.085Z,13.15
2022-11-03T10:21:35.976Z,14.38
2022-11-03T10:24:02.288Z,12.27
2022-11-03T10:26:28.945Z,14.93
2022-11-03T10:28:59.771Z,12.30
2022-11-03T10:31:31.814Z,11.20
2022-11-03T10:33:58.089Z,13.02
2022-11-03T10:36:28.801Z,12.70
2022-11-03T10:38:55.404Z,13.48
2022-11-03T10:41:25.974Z,13.45
2022-11-03T10:44:01.587Z,14.02
2022-11-03T10:49:15.296Z,10.73
2022-11-03T10:51:42.672Z,12.63
2022-11-03T10:54:11.249Z,13.55
2022-11-03T10:56:37.529Z,12.23
2022-11-03T10:59:03.835Z,14.32
2022-11-03T11:01:30.301Z,10.23
2022-11-03T11:03:57.503Z,9.38
2022-11-03T11:06:29.223Z,12.10
2022-11-03T11:09:00.507Z,13.10
2022-11-03T11:11:26.841Z,11.55
2022-11-03T11:14:11.981Z,14.15
2022-11-03T11:16:49.794Z,16.35
2022-11-03T11:19:16.175Z,12.68
2022-11-03T11:21:42.433Z,13.00
2022-11-03T11:24:09.415Z,14.15
2022-11-03T11:26:35.711Z,14.85
2022-11-03T11:29:08.419Z,19.05
2022-11-03T11:31:35.527Z,16.80
2022-11-03T11:34:18.091Z,17.77
2022-11-03T11:36:45.540Z,13.45
2022-11-03T11:39:13.029Z,15.80
2022-11-03T11:41:58.077Z,13.05
2022-11-03T11:44:39.621Z,14.60
2022-11-03T11:47:21.755Z,13.45
2022-11-03T11:49:48.151Z,12.73
2022-11-03T11:52:18.703Z,12.02
2022-11-03T11:54:45.386Z,19.63
2022-11-03T11:57:19.130Z,15.93
2022-11-03T11:59:49.270Z,20.88
2022-11-03T12:02:20.127Z,18.73
2022-11-03T12:04:46.664Z,19.08
2022-11-03T12:07:13.682Z,15.02
2022-11-03T12:09:41.652Z,25.45
2022-11-03T12:12:08.903Z,13.48
2022-11-03T12:14:36.960Z,15.63
2022-11-03T12:17:17.575Z,17.02
2022-11-03T12:19:47.700Z,16.15
2022-11-03T12:22:23.111Z,14.00
2022-11-03T12:24:55.798Z,15.82
2022-11-03T12:27:25.324Z,14.00
2022-11-03T12:29:52.070Z,13.85
2022-11-03T12:32:32.566Z,13.35
2022-11-03T12:35:00.902Z,14.50
2022-11-03T12:37:27.258Z,21.10
2022-11-03T12:39:53.522Z,15.80
2022-11-03T12:42:20.947Z,14.48
2022-11-03T12:44:47.265Z,18.10
2022-11-03T12:47:13.545Z,13.65
2022-11-03T12:49:39.828Z,17.25
2022-11-03T12:52:08.406Z,13.55
2022-11-03T12:54:35.210Z,18.10
2022-11-03T12:57:01.578Z,14.48
2022-11-03T12:59:28.189Z,18.95
2022-11-03T13:01:54.552Z,21.60
2022-11-03T13:04:21.053Z,16.08
2022-11-03T13:06:47.341Z,17.17
2022-11-03T13:09:13.605Z,17.00
2022-11-03T13:11:58.778Z,19.42
2022-11-03T13:14:26.443Z,15.38
2022-11-03T13:16:52.866Z,16.95
2022-11-03T13:19:19.127Z,14.63
2022-11-03T13:21:45.437Z,12.68
2022-11-03T13:24:11.708Z,20.13
2022-11-03T13:26:38.240Z,16.58
2022-11-03T13:29:04.569Z,14.52
2022-11-03T13:31:31.307Z,15.93
2022-11-03T13:33:57.668Z,19.83
2022-11-03T13:36:24.079Z,17.88
2022-11-03T13:38:50.450Z,17.83
2022-11-03T13:41:16.722Z,15.00
2022-11-03T13:43:43.109Z,18.00
2022-11-03T13:46:09.368Z,17.83
2022-11-03T13:51:22.092Z,17.42
2022-11-03T14:07:11.341Z,17.65
2022-11-03T14:12:27.584Z,21.10
2022-11-03T14:14:53.919Z,15.35
2022-11-03T14:17:20.251Z,16.42
2022-11-03T14:19:52.441Z,15.93
2022-11-03T14:22:20.091Z,17.65
2022-11-03T14:24:46.409Z,15.43
2022-11-03T14:27:12.886Z,14.32
2022-11-03T14:29:39.187Z,14.40
2022-11-03T14:32:06.147Z,14.90
2022-11-03T14:34:32.497Z,15.23
2022-11-03T14:36:58.938Z,15.20
2022-11-03T14:39:25.247Z,17.35
2022-11-03T14:42:03.760Z,11.30
2022-11-03T14:44:37.059Z,14.13
2022-11-03T14:47:04.579Z,12.82
2022-11-03T14:49:31.467Z,15.07
2022-11-03T14:52:02.015Z,20.45
2022-11-03T14:54:29.111Z,18.70
2022-11-03T14:56:55.744Z,15.68
2022-11-03T14:59:22.268Z,15.98
2022-11-03T15:01:49.159Z,21.25
2022-11-03T15:04:15.548Z,14.45
2022-11-03T15:06:41.871Z,15.98
2022-11-03T15:11:40.062Z,10.48
2022-11-03T15:14:06.573Z,16.73
2022-11-03T15:16:34.526Z,14.15
2022-11-03T15:19:00.799Z,13.15
2022-11-03T15:21:28.020Z,16.98
2022-11-03T15:26:40.657Z,12.80
2022-11-03T15:29:06.996Z,13.98
2022-11-03T15:31:33.267Z,15.13
2022-11-03T15:34:01.812Z,16.23
2022-11-03T15:36:31.649Z,18.15
2022-11-03T15:38:57.934Z,17.92
2022-11-03T15:41:24.247Z,19.05
2022-11-03T15:43:50.656Z,15.73
2022-11-03T15:46:18.234Z,11.88
2022-11-03T15:48:44.847Z,20.42
2022-11-03T15:51:12.115Z,16.33
2022-11-03T15:53:38.527Z,19.17
2022-11-03T15:56:05.007Z,15.65
2022-11-03T15:58:34.201Z,19.05
2022-11-03T16:01:03.701Z,18.80
2022-11-03T16:03:31.731Z,20.95
2022-11-03T16:05:58.173Z,19.33
2022-11-03T16:08:27.515Z,20.15
2022-11-03T16:10:57.876Z,18.83
2022-11-03T16:13:25.021Z,18.48
2022-11-03T16:15:51.661Z,21.67
2022-11-03T16:18:18.068Z,20.20
2022-11-03T16:20:44.417Z,17.85
2022-11-03T16:23:10.753Z,14.70
2022-11-03T16:25:37.264Z,14.18
2022-11-03T16:28:03.734Z,20.75
2022-11-03T16:30:30.300Z,18.20
2022-11-03T16:32:56.558Z,14.00
2022-11-03T16:35:22.935Z,14.48
2022-11-03T16:37:49.485Z,16.25
2022-11-03T16:40:19.291Z,12.93
2022-11-03T16:42:46.117Z,14.60
2022-11-03T16:45:18.335Z,15.23
2022-11-03T16:47:45.463Z,17.50
2022-11-03T16:50:11.826Z,15.90
2022-11-03T16:52:38.157Z,15.82
2022-11-03T16:55:04.968Z,13.63
2022-11-03T16:57:31.236Z,17.73
2022-11-03T16:59:57.880Z,16.15
2022-11-03T17:02:24.682Z,16.00
2022-11-03T17:04:51.101Z,13.70
2022-11-03T17:07:17.357Z,19.50
2022-11-03T17:09:43.643Z,12.85
2022-11-03T17:12:09.897Z,19.02
2022-11-03T17:14:36.214Z,17.02
2022-11-03T17:17:02.537Z,16.08
2022-11-03T17:19:28.905Z,14.50
2022-11-03T17:21:55.174Z,14.57
2022-11-03T17:24:21.455Z,18.17
2022-11-03T17:26:52.012Z,18.67
2022-11-03T17:29:21.188Z,16.45
2022-11-03T17:31:47.816Z,15.13
2022-11-03T17:34:14.180Z,17.23
2022-11-03T17:36:40.536Z,23.90
2022-11-03T17:39:06.875Z,23.33
2022-11-03T17:41:34.911Z,18.05
2022-11-03T17:44:01.483Z,16.60
2022-11-03T17:46:27.840Z,29.83
2022-11-03T17:48:54.211Z,24.80
2022-11-03T17:51:20.568Z,16.60
2022-11-03T17:53:46.973Z,13.40
2022-11-03T17:56:29.604Z,14.00
2022-11-03T17:58:56.763Z,15.40
2022-11-03T18:01:24.842Z,13.80
2022-11-03T18:03:52.160Z,22.63
2022-11-03T18:06:19.673Z,20.20
2022-11-03T18:08:46.512Z,24.38
2022-11-03T18:11:34.427Z,22.42
2022-11-03T18:14:02.475Z,26.90
2022-11-03T18:16:30.142Z,19.90
2022-11-03T18:18:56.663Z,16.10
2022-11-03T18:21:23.480Z,15.25
2022-11-03T18:23:49.854Z,19.27
2022-11-03T18:26:17.692Z,15.65
2022-11-03T18:28:44.052Z,15.82
2022-11-03T18:31:18.538Z,15.07
2022-11-03T18:33:44.924Z,12.60
2022-11-03T18:36:13.336Z,16.33
2022-11-03T18:38:39.761Z,18.25
2022-11-03T18:41:26.674Z,22.63
2022-11-03T18:43:52.915Z,28.02
2022-11-03T18:46:20.663Z,23.88
2022-11-03T18:48:46.936Z,26.85
2022-11-03T18:51:13.210Z,28.30
2022-11-03T18:53:39.525Z,26.05
2022-11-03T18:56:08.927Z,32.08
2022-11-03T18:58:35.256Z,27.10
2022-11-03T19:01:01.643Z,35.50
2022-11-03T19:03:28.003Z,28.10
2022-11-03T19:05:54.533Z,30.42
2022-11-03T19:08:22.522Z,37.45
2022-11-03T19:10:48.835Z,31.35
2022-11-03T19:13:16.890Z,21.00
2022-11-03T19:15:43.211Z,14.90
2022-11-03T19:18:11.557Z,15.98
2022-11-03T19:20:38.028Z,17.17
2022-11-03T19:23:04.490Z,14.20
2022-11-03T19:25:31.159Z,16.92
2022-11-03T19:27:57.555Z,16.35
2022-11-03T19:30:23.872Z,15.10
2022-11-03T19:32:52.014Z,20.00
2022-11-03T19:35:18.377Z,17.83
2022-11-03T19:37:45.240Z,24.08
2022-11-03T19:40:13.036Z,15.25
2022-11-03T19:42:39.573Z,22.25
2022-11-03T19:45:07.850Z,18.55
2022-11-03T19:48:10.761Z,22.73
2022-11-03T19:50:36.227Z,25.20
2022-11-03T19:53:04.327Z,23.02
2022-11-03T19:55:38.200Z,28.05
2022-11-03T19:58:13.162Z,23.67
2022-11-03T20:00:39.635Z,16.17
2022-11-03T20:03:05.991Z,20.52
2022-11-03T20:05:32.364Z,21.02
2022-11-03T20:08:01.748Z,19.73
2022-11-03T20:10:31.673Z,19.48
2022-11-03T20:13:01.443Z,20.27
2022-11-03T20:15:27.729Z,22.77
2022-11-03T20:17:53.997Z,21.45
2022-11-03T20:20:22.495Z,22.48
2022-11-03T20:22:58.554Z,26.52
2022-11-03T20:25:27.056Z,25.50
2022-11-03T20:27:53.864Z,30.95
2022-11-03T20:30:20.804Z,24.55
2022-11-03T20:32:47.554Z,23.90
2022-11-03T20:35:18.748Z,24.58
2022-11-03T20:40:16.117Z,18.52
2022-11-03T20:42:42.823Z,24.50
2022-11-03T20:45:13.536Z,21.20
2022-11-03T20:47:45.690Z,26.55
2022-11-03T20:50:15.121Z,23.77
2022-11-03T20:52:42.901Z,21.70
2022-11-03T20:55:15.586Z,27.45
2022-11-03T20:57:41.907Z,23.13
2022-11-03T21:00:11.492Z,29.38
2022-11-03T21:02:37.863Z,29.73
2022-11-03T21:05:06.135Z,24.05
2022-11-03T21:07:32.419Z,33.38
2022-11-03T21:09:58.688Z,23.70
2022-11-03T21:12:25.012Z,24.73
2022-11-03T21:15:14.498Z,22.95
2022-11-03T21:17:59.519Z,24.70
2022-11-03T21:20:25.832Z,21.40
2022-11-03T21:22:53.910Z,22.27
2022-11-03T21:25:21.889Z,21.05
2022-11-03T21:27:49.541Z,23.92
2022-11-03T21:30:16.706Z,32.03
2022-11-03T21:32:43.140Z,26.50
2022-11-03T21:35:13.535Z,26.15
2022-11-03T21:37:39.795Z,30.40
2022-11-03T21:40:06.376Z,22.70
2022-11-03T21:42:51.618Z,24.55
2022-11-03T21:45:19.956Z,23.13
2022-11-03T21:48:08.744Z,21.88
2022-11-03T21:50:39.307Z,24.67
2022-11-03T21:53:06.854Z,23.75
2022-11-03T21:55:33.531Z,25.95
2022-11-03T21:58:01.287Z,27.23
2022-11-03T22:00:28.640Z,24.27
2022-11-03T22:02:54.940Z,23.27
2022-11-03T22:05:21.278Z,23.30
2022-11-03T22:07:47.540Z,22.90
2022-11-03T22:10:14.899Z,28.58
2022-11-03T22:12:41.186Z,27.52
2022-11-03T22:15:26.333Z,27.80
2022-11-03T22:17:59.655Z,29.38
2022-11-03T22:20:44.579Z,29.17
2022-11-03T22:23:38.538Z,27.35
2022-11-03T22:26:23.669Z,34.50
2022-11-03T22:29:09.993Z,26.77
2022-11-03T22:31:40.420Z,30.95
2022-11-03T22:34:25.366Z,24.48
2022-11-03T22:36:51.772Z,23.77
2022-11-03T22:39:36.895Z,23.40
2022-11-03T22:42:22.763Z,21.88
2022-11-03T22:45:07.981Z,22.80
2022-11-03T22:47:34.276Z,24.30
2022-11-03T22:50:00.558Z,24.65
2022-11-03T22:52:26.851Z,25.92
2022-11-03T22:54:53.144Z,23.30
2022-11-03T22:57:19.412Z,22.17
2022-11-03T22:59:45.759Z,24.50
2022-11-03T23:02:12.073Z,26.92
2022-11-03T23:04:38.367Z,21.85
2022-11-03T23:07:04.660Z,23.00
2022-11-03T23:09:30.980Z,21.10
2022-11-03T23:11:57.288Z,15.27
2022-11-03T23:14:23.595Z,18.90
2022-11-03T23:16:49.881Z,18.45
2022-11-03T23:19:35.034Z,17.45
2022-11-03T23:22:01.694Z,16.55
2022-11-03T23:24:46.521Z,16.05
2022-11-03T23:27:13.311Z,16.38
2022-11-03T23:29:39.677Z,16.70
2022-11-03T23:32:06.365Z,20.20
2022-11-03T23:34:34.695Z,18.08
2022-11-03T23:37:00.978Z,18.90
2022-11-03T23:39:27.291Z,17.02
2022-11-03T23:41:53.626Z,16.85
2022-11-03T23:44:19.925Z,18.30
2022-11-03T23:47:05.050Z,17.33
2022-11-03T23:49:31.344Z,14.65
2022-11-03T23:51:57.816Z,16.60
2022-11-03T23:54:24.304Z,16.05
2022-11-03T23:57:09.349Z,14.18
2022-11-03T23:59:35.712Z,13.30
